地図

経路データ

SID SEASON NUMBER BASIN SUBBASIN NAME ISO_TIME NATURE LAT LON WMO_WIND WMO_PRES WMO_AGENCY TRACK_TYPE DIST2LAND LANDFALL IFLAG USA_AGENCY USA_ATCF_ID USA_LAT USA_LON USA_RECORD USA_STATUS USA_WIND USA_PRES USA_SSHS USA_R34_NE USA_R34_SE USA_R34_SW USA_R34_NW USA_R50_NE USA_R50_SE USA_R50_SW USA_R50_NW USA_R64_NE USA_R64_SE USA_R64_SW USA_R64_NW USA_POCI USA_ROCI USA_RMW USA_EYE TOKYO_LAT TOKYO_LON TOKYO_GRADE TOKYO_WIND TOKYO_PRES TOKYO_R50_DIR TOKYO_R50_LONG TOKYO_R50_SHORT TOKYO_R30_DIR TOKYO_R30_LONG TOKYO_R30_SHORT TOKYO_LAND CMA_LAT CMA_LON CMA_CAT CMA_WIND CMA_PRES HKO_LAT HKO_LON HKO_CAT HKO_WIND HKO_PRES NEWDELHI_LAT NEWDELHI_LON NEWDELHI_GRADE NEWDELHI_WIND NEWDELHI_PRES NEWDELHI_CI NEWDELHI_DP NEWDELHI_POCI REUNION_LAT REUNION_LON REUNION_TYPE REUNION_WIND REUNION_PRES REUNION_TNUM REUNION_CI REUNION_RMW REUNION_R34_NE REUNION_R34_SE REUNION_R34_SW REUNION_R34_NW REUNION_R50_NE REUNION_R50_SE REUNION_R50_SW REUNION_R50_NW REUNION_R64_NE REUNION_R64_SE REUNION_R64_SW REUNION_R64_NW BOM_LAT BOM_LON BOM_TYPE BOM_WIND BOM_PRES BOM_TNUM BOM_CI BOM_RMW BOM_R34_NE BOM_R34_SE BOM_R34_SW BOM_R34_NW BOM_R50_NE BOM_R50_SE BOM_R50_SW BOM_R50_NW BOM_R64_NE BOM_R64_SE BOM_R64_SW BOM_R64_NW BOM_ROCI BOM_POCI BOM_EYE BOM_POS_METHOD BOM_PRES_METHOD NADI_LAT NADI_LON NADI_CAT NADI_WIND NADI_PRES WELLINGTON_LAT WELLINGTON_LON WELLINGTON_WIND WELLINGTON_PRES DS824_LAT DS824_LON DS824_STAGE DS824_WIND DS824_PRES TD9636_LAT TD9636_LON TD9636_STAGE TD9636_WIND TD9636_PRES TD9635_LAT TD9635_LON TD9635_WIND TD9635_PRES TD9635_ROCI NEUMANN_LAT NEUMANN_LON NEUMANN_CLASS NEUMANN_WIND NEUMANN_PRES MLC_LAT MLC_LON MLC_CLASS MLC_WIND MLC_PRES USA_GUST BOM_GUST BOM_GUST_PER REUNION_GUST REUNION_GUST_PER USA_SEAHGT USA_SEARAD_NE USA_SEARAD_SE USA_SEARAD_SW USA_SEARAD_NW STORM_SPEED STORM_DIR
1985259N12262 1985 86 EP MM TERRY 1985-09-15 18:00:00 TS 12.2000 -98.5000 25 hurdat_epa main 432 432 O_________O___ hurdat_epa EP191985 12.2000 -98.5000 TD 25 -1 12.2000 -98.5000 1 25 9 275
1985259N12262 1985 86 EP MM TERRY 1985-09-15 21:00:00 TS 12.2401 -98.9500 main 444 437 P_________P___ EP191985 12.2376 -98.9500 TD 25 -1 12.2476 -98.9500 1 25 9 276
1985259N12262 1985 86 EP MM TERRY 1985-09-16 00:00:00 TS 12.3000 -99.4000 25 hurdat_epa main 448 448 O_________O___ hurdat_epa EP191985 12.3000 -99.4000 TD 25 -1 12.3000 -99.4000 1 25 9 280
1985259N12262 1985 86 EP MM TERRY 1985-09-16 03:00:00 TS 12.3904 -99.8500 main 455 455 P_________P___ EP191985 12.3999 -99.8500 TD 27 -1 12.3616 -99.8501 1 26 9 282
1985259N12262 1985 86 EP MM TERRY 1985-09-16 06:00:00 TS 12.4832 -100.300 30 hurdat_epa main 463 463 O_________P___ hurdat_epa EP191985 12.5000 -100.300 TD 30 -1 12.4327 -100.300 1 27 9 280
1985259N12262 1985 86 EP MM TERRY 1985-09-16 09:00:00 TS 12.5462 -100.750 main 484 474 P_________P___ EP191985 12.5574 -100.750 TD 30 -1 12.5125 -100.750 1 28 9 278
1985259N12262 1985 86 EP MM TERRY 1985-09-16 12:00:00 TS 12.6000 -101.200 30 hurdat_epa main 486 486 O_________O___ hurdat_epa EP191985 12.6000 -101.200 TD 30 -1 12.6000 -101.200 1 30 9 276
1985259N12262 1985 86 EP MM TERRY 1985-09-16 15:00:00 TS 12.6453 -101.649 main 502 496 P_________P___ EP191985 12.6349 -101.650 TD 32 -1 12.6763 -101.646 1 32 9 278
1985259N12262 1985 86 EP MM TERRY 1985-09-16 18:00:00 TS 12.7155 -102.098 35 hurdat_epa main 516 512 O_________P___ hurdat_epa EP191985 12.7000 -102.100 TS 35 0 12.7621 -102.093 1 35 9 283
1985259N12262 1985 86 EP MM TERRY 1985-09-16 21:00:00 TS 12.8429 -102.543 main 525 518 P_________P___ EP191985 12.8349 -102.542 TS 37 0 12.8669 -102.543 1 37 9 288
1985259N12262 1985 86 EP MM TERRY 1985-09-17 00:00:00 TS 13.0000 -103.000 40 hurdat_epa main 522 521 O_________O___ hurdat_epa EP191985 13.0000 -103.000 TS 40 0 13.0000 -103.000 2 40 10 288
1985259N12262 1985 86 EP MM TERRY 1985-09-17 03:00:00 TS 13.1410 -103.495 main 536 531 P_________P___ EP191985 13.1350 -103.500 TS 42 0 13.1590 -103.480 2 41 10 288
1985259N12262 1985 86 EP MM TERRY 1985-09-17 06:00:00 TS 13.3119 -103.991 45 hurdat_epa main 545 535 O_________P___ hurdat_epa EP191985 13.3000 -104.000 TS 45 0 13.3475 -103.965 2 42 10 293
1985259N12262 1985 86 EP MM TERRY 1985-09-17 09:00:00 TS 13.5361 -104.454 main 542 521 P_________P___ EP191985 13.5274 -104.458 TS 45 0 13.5622 -104.443 2 43 10 299
1985259N12262 1985 86 EP MM TERRY 1985-09-17 12:00:00 TS 13.8000 -104.900 45 hurdat_epa main 524 507 O_________O___ hurdat_epa EP191985 13.8000 -104.900 TS 45 0 13.8000 -104.900 2 45 10 302
1985259N12262 1985 86 EP MM TERRY 1985-09-17 15:00:00 TS 14.0900 -105.359 main 511 495 P_________P___ EP191985 14.1000 -105.365 TS 47 0 14.0599 -105.343 2 47 10 304
1985259N12262 1985 86 EP MM TERRY 1985-09-17 18:00:00 TS 14.3849 -105.790 50 hurdat_epa main 500 492 O_________P___ hurdat_epa EP191985 14.4000 -105.800 TS 50 0 14.3396 -105.761 2 50 10 306
1985259N12262 1985 86 EP MM TERRY 1985-09-17 21:00:00 TS 14.6492 -106.167 main 504 490 P_________P___ EP191985 14.6574 -106.173 TS 52 0 14.6245 -106.149 2 52 9 307
1985259N12262 1985 86 EP MM TERRY 1985-09-18 00:00:00 TS 14.9000 -106.500 55 hurdat_epa main 496 494 O_________O___ hurdat_epa EP191985 14.9000 -106.500 TS 55 0 14.9000 -106.500 2 55 8 309
1985259N12262 1985 86 EP MM TERRY 1985-09-18 03:00:00 TS 15.1582 -106.816 main 493 490 P_________P___ EP191985 15.1575 -106.815 TS 60 0 15.1605 -106.818 2 60 8 311
1985259N12262 1985 86 EP MM TERRY 1985-09-18 06:00:00 TS 15.4000 -107.100 65 hurdat_epa main 490 482 O_________O___ hurdat_epa EP191985 15.4000 -107.100 HU 65 1 15.4000 -107.100 3 65 7 311
1985259N12262 1985 86 EP MM TERRY 1985-09-18 09:00:00 TS 15.6132 -107.358 main 488 476 P_________P___ EP191985 15.6149 -107.358 HU 67 1 15.6081 -107.358 3 67 6 310
1985259N12262 1985 86 EP MM TERRY 1985-09-18 12:00:00 TS 15.8000 -107.600 70 hurdat_epa main 482 480 O_________O___ hurdat_epa EP191985 15.8000 -107.600 HU 70 1 15.8000 -107.600 4 70 6 306
1985259N12262 1985 86 EP MM TERRY 1985-09-18 15:00:00 TS 15.9568 -107.851 main 485 485 P_________P___ EP191985 15.9425 -107.850 HU 72 1 16.0000 -107.854 4 75 6 304
1985259N12262 1985 86 EP MM TERRY 1985-09-18 18:00:00 TS 16.1250 -108.102 75 hurdat_epa main 492 484 O_________P___ hurdat_epa EP191985 16.1000 -108.100 HU 75 1 16.2000 -108.107 4 80 6 309
1985259N12262 1985 86 EP MM TERRY 1985-09-18 21:00:00 TS 16.3569 -108.357 main 492 491 P_________P___ EP191985 16.3425 -108.357 HU 82 1 16.4000 -108.357 4 85 7 315
1985259N12262 1985 86 EP MM TERRY 1985-09-19 00:00:00 TS 16.6000 -108.600 90 hurdat_epa main 491 483 O_________O___ hurdat_epa EP191985 16.6000 -108.600 HU 90 2 16.6000 -108.600 4 90 6 316
1985259N12262 1985 86 EP MM TERRY 1985-09-19 03:00:00 TS 16.8055 -108.805 main 491 491 P_________P___ EP191985 16.8074 -108.800 HU 90 2 16.7998 -108.820 4 90 6 316
1985259N12262 1985 86 EP MM TERRY 1985-09-19 06:00:00 TS 16.9999 -109.009 90 hurdat_epa main 493 493 O_________P___ hurdat_epa EP191985 17.0000 -109.000 HU 90 2 16.9997 -109.035 4 90 6 313
1985259N12262 1985 86 EP MM TERRY 1985-09-19 09:00:00 TS 17.1999 -109.241 main 497 497 P_________P___ EP191985 17.2000 -109.235 HU 90 2 17.1998 -109.258 4 90 6 310
1985259N12262 1985 86 EP MM TERRY 1985-09-19 12:00:00 TS 17.4000 -109.500 90 hurdat_epa main 511 511 O_________O___ hurdat_epa EP191985 17.4000 -109.500 HU 90 2 17.4000 -109.500 4 90 7 308
1985259N12262 1985 86 EP MM TERRY 1985-09-19 15:00:00 TS 17.6041 -109.792 main 526 526 P_________P___ EP191985 17.6000 -109.793 HU 92 2 17.6164 -109.790 4 92 7 305
1985259N12262 1985 86 EP MM TERRY 1985-09-19 18:00:00 TS 17.8075 -110.100 95 hurdat_epa main 542 542 O_________P___ hurdat_epa EP191985 17.8000 -110.100 HU 95 2 17.8302 -110.100 4 95 7 305
1985259N12262 1985 86 EP MM TERRY 1985-09-19 21:00:00 TS 18.0185 -110.408 main 549 529 P_________P___ EP191985 18.0150 -110.407 HU 97 3 18.0289 -110.409 4 97 7 305
1985259N12262 1985 86 EP MM TERRY 1985-09-20 00:00:00 TS 18.2000 -110.700 100 hurdat_epa main 530 521 O_________O___ hurdat_epa EP191985 18.2000 -110.700 HU 100 3 18.2000 -110.700 4 100 6 300
1985259N12262 1985 86 EP MM TERRY 1985-09-20 03:00:00 TS 18.3173 -110.960 main 524 516 P_________P___ EP191985 18.3150 -110.965 HU 97 3 18.3244 -110.943 4 97 5 294
1985259N12262 1985 86 EP MM TERRY 1985-09-20 06:00:00 TS 18.4055 -111.191 95 hurdat_epa main 518 510 O_________P___ hurdat_epa EP191985 18.4000 -111.200 HU 95 2 18.4222 -111.166 4 95 5 293
1985259N12262 1985 86 EP MM TERRY 1985-09-20 09:00:00 TS 18.4965 -111.395 main 513 505 P_________P___ EP191985 18.4924 -111.400 HU 92 2 18.5088 -111.380 4 92 4 297
1985259N12262 1985 86 EP MM TERRY 1985-09-20 12:00:00 TS 18.6000 -111.600 90 hurdat_epa main 508 501 O_________O___ hurdat_epa EP191985 18.6000 -111.600 HU 90 2 18.6000 -111.600 4 90 5 300
1985259N12262 1985 86 EP MM TERRY 1985-09-20 15:00:00 TS 18.7409 -111.841 main 505 493 P_________P___ EP191985 18.7500 -111.842 HU 90 2 18.7136 -111.835 4 90 5 301
1985259N12262 1985 86 EP MM TERRY 1985-09-20 18:00:00 TS 18.8837 -112.094 90 hurdat_epa main 497 492 O_________P___ hurdat_epa EP191985 18.9000 -112.100 HU 90 2 18.8348 -112.078 4 90 5 298
1985259N12262 1985 86 EP MM TERRY 1985-09-20 21:00:00 TS 18.9909 -112.346 main 497 497 P_________P___ EP191985 19.0000 -112.350 HU 90 2 18.9636 -112.332 4 90 5 294
1985259N12262 1985 86 EP MM TERRY 1985-09-21 00:00:00 TS 19.1000 -112.600 90 hurdat_epa main 503 499 O_________O___ hurdat_epa EP191985 19.1000 -112.600 HU 90 2 19.1000 -112.600 4 90 5 298
1985259N12262 1985 86 EP MM TERRY 1985-09-21 03:00:00 TS 19.2425 -112.849 main 505 499 P_________P___ EP191985 19.2424 -112.835 HU 95 2 19.2428 -112.890 4 90 6 301
1985259N12262 1985 86 EP MM TERRY 1985-09-21 06:00:00 TS 19.3981 -113.123 100 hurdat_epa main 506 504 O_________P___ hurdat_epa EP191985 19.4000 -113.100 HU 100 3 19.3925 -113.193 4 90 7 298
1985259N12262 1985 86 EP MM TERRY 1985-09-21 09:00:00 TS 19.5490 -113.457 main 525 517 P_________P___ EP191985 19.5501 -113.443 HU 95 2 19.5459 -113.499 4 90 7 295
1985259N12262 1985 86 EP MM TERRY 1985-09-21 12:00:00 TS 19.7000 -113.800 90 hurdat_epa main 531 531 O_________O___ hurdat_epa EP191985 19.7000 -113.800 HU 90 2 19.7000 -113.800 4 90 7 296
1985259N12262 1985 86 EP MM TERRY 1985-09-21 15:00:00 TS 19.8509 -114.108 main 540 540 P_________P___ EP191985 19.8499 -114.115 HU 85 2 19.8539 -114.086 4 87 6 298
1985259N12262 1985 86 EP MM TERRY 1985-09-21 18:00:00 TS 20.0018 -114.391 80 hurdat_epa main 558 558 O_________P___ hurdat_epa EP191985 20.0000 -114.400 HU 80 1 20.0073 -114.365 4 85 6 301
1985259N12262 1985 86 EP MM TERRY 1985-09-21 21:00:00 TS 20.1573 -114.652 main 565 561 P_________P___ EP191985 20.1574 -114.658 HU 80 1 20.1571 -114.636 4 82 6 302
1985259N12262 1985 86 EP MM TERRY 1985-09-22 00:00:00 TS 20.3000 -114.900 80 hurdat_epa main 567 563 O_________O___ hurdat_epa EP191985 20.3000 -114.900 HU 80 1 20.3000 -114.900 4 80 5 298
1985259N12262 1985 86 EP MM TERRY 1985-09-22 03:00:00 TS 20.4070 -115.154 main 576 572 P_________P___ EP191985 20.4000 -115.150 HU 80 1 20.4280 -115.166 4 78 5 294
1985259N12262 1985 86 EP MM TERRY 1985-09-22 06:00:00 TS 20.5125 -115.406 80 hurdat_epa main 578 575 O_________P___ hurdat_epa EP191985 20.5000 -115.400 HU 80 1 20.5499 -115.423 4 77 5 298
1985259N12262 1985 86 EP MM TERRY 1985-09-22 09:00:00 TS 20.6554 -115.660 main 579 577 P_________P___ EP191985 20.6500 -115.657 HU 77 1 20.6718 -115.669 4 76 5 302
1985259N12262 1985 86 EP MM TERRY 1985-09-22 12:00:00 TS 20.8000 -115.900 75 hurdat_epa main 584 583 O_________O___ hurdat_epa EP191985 20.8000 -115.900 HU 75 1 20.8000 -115.900 4 75 5 300
1985259N12262 1985 86 EP MM TERRY 1985-09-22 15:00:00 TS 20.8948 -116.103 main 590 589 P_________P___ EP191985 20.8924 -116.108 HU 72 1 20.9018 -116.091 4 72 4 299
1985259N12262 1985 86 EP MM TERRY 1985-09-22 18:00:00 TS 21.0042 -116.293 70 hurdat_epa main 596 596 O_________P___ hurdat_epa EP191985 21.0000 -116.300 HU 70 1 21.0169 -116.271 4 70 4 308
1985259N12262 1985 86 EP MM TERRY 1985-09-22 21:00:00 TS 21.1652 -116.475 main 596 596 P_________P___ EP191985 21.1624 -116.478 HU 67 1 21.1736 -116.466 4 67 6 316
1985259N12262 1985 86 EP MM TERRY 1985-09-23 00:00:00 TS 21.4000 -116.700 65 hurdat_epa main 596 596 O_________O___ hurdat_epa EP191985 21.4000 -116.700 HU 65 1 21.4000 -116.700 4 65 8 317
1985259N12262 1985 86 EP MM TERRY 1985-09-23 03:00:00 TS 21.7144 -117.020 main 600 600 P_________P___ EP191985 21.7126 -117.028 HU 62 0 21.7201 -116.999 4 62 10 318
1985259N12262 1985 86 EP MM TERRY 1985-09-23 06:00:00 TS 22.1025 -117.385 60 hurdat_epa main 609 604 O_________P___ hurdat_epa EP191985 22.1000 -117.400 TS 60 0 22.1101 -117.340 4 60 11 321
1985259N12262 1985 86 EP MM TERRY 1985-09-23 09:00:00 TS 22.5374 -117.735 main 616 598 P_________P___ EP191985 22.5349 -117.743 TS 57 0 22.5450 -117.711 4 57 11 324
1985259N12262 1985 86 EP MM TERRY 1985-09-23 12:00:00 TS 23.0000 -118.100 55 hurdat_epa main 598 584 O_________O___ hurdat_epa EP191985 23.0000 -118.100 TS 55 0 23.0000 -118.100 2 55 11 322
1985259N12262 1985 86 EP MM TERRY 1985-09-23 15:00:00 TS 23.4383 -118.495 main 591 576 P_________P___ EP191985 23.4500 -118.493 TS 50 0 23.4033 -118.503 2 51 12 320
1985259N12262 1985 86 EP MM TERRY 1985-09-23 18:00:00 TS 23.8813 -118.904 45 hurdat_epa main 576 565 O_________P___ hurdat_epa EP191985 23.9000 -118.900 TS 45 0 23.8253 -118.916 2 47 12 320
1985259N12262 1985 86 EP MM TERRY 1985-09-23 21:00:00 TS 24.3280 -119.311 main 573 565 P_________P___ EP191985 24.3424 -119.308 TS 42 0 24.2846 -119.321 2 43 12 322
1985259N12262 1985 86 EP MM TERRY 1985-09-24 00:00:00 TS 24.8000 -119.700 40 hurdat_epa main 569 562 O_________O___ hurdat_epa EP191985 24.8000 -119.700 TS 40 0 24.8000 -119.700 2 40 12 324
1985259N12262 1985 86 EP MM TERRY 1985-09-24 03:00:00 TS 25.2760 -120.059 main 573 566 P_________P___ EP191985 25.2475 -120.073 TS 35 0 25.3617 -120.018 2 36 12 330
1985259N12262 1985 86 EP MM TERRY 1985-09-24 06:00:00 TS 25.8459 -120.377 30 hurdat_epa main 576 566 O_________P___ hurdat_epa EP191985 25.8000 -120.400 TD 30 -1 25.9835 -120.309 2 32 14 338
1985259N12262 1985 86 EP MM TERRY 1985-09-24 09:00:00 TS 26.5820 -120.637 main 566 566 P_________P___ EP191985 26.5548 -120.651 TD 27 -1 26.6635 -120.596 2 28 16 343
1985259N12262 1985 86 EP MM TERRY 1985-09-24 12:00:00 TS 27.4000 -120.900 25 hurdat_epa main 569 556 O_________O___ hurdat_epa EP191985 27.4000 -120.900 TD 25 -1 27.4000 -120.900 1 25 17 342
1985259N12262 1985 86 EP MM TERRY 1985-09-24 15:00:00 TS 28.2081 -121.227 main 557 550 P_________P___ EP191985 28.2153 -121.224 TD 25 -1 28.1867 -121.238 1 25 17 339
1985259N12262 1985 86 EP MM TERRY 1985-09-24 18:00:00 TS 29.0000 -121.600 25 hurdat_epa main 552 O_________O___ hurdat_epa EP191985 29.0000 -121.600 TD 25 -1 29.0000 -121.600 1 25 17 338

IBTrACS Databaseについて

本データベースは、米国NOAAが公開する1842年以降の世界の熱帯低気圧のベストトラックデータアーカイブInternational Best Track Archive for Climate Stewardship (IBTrACS)を、ウェブで閲覧しやすい形式に変換したものです。

最終更新日:2021-10-21